sensor_id;sensor_type;location;lat;lon;timestamp;pressure;altitude;pressure_sealevel;temperature;humidity
40612;BME280;26317;44.894;20.286;2023-10-08T00:02:25;101151.84;;;14.77;74.76
40612;BME280;26317;44.894;20.286;2023-10-08T00:04:59;101151.81;;;14.82;74.68
40612;BME280;26317;44.894;20.286;2023-10-08T00:07:50;101149.09;;;14.82;74.73
40612;BME280;26317;44.894;20.286;2023-10-08T00:10:30;101132.97;;;14.71;75.00
40612;BME280;26317;44.894;20.286;2023-10-08T00:13:40;101137.75;;;14.80;74.74
40612;BME280;26317;44.894;20.286;2023-10-08T00:16:20;101113.25;;;14.71;75.18
40612;BME280;26317;44.894;20.286;2023-10-08T00:19:13;101139.09;;;14.82;75.01
40612;BME280;26317;44.894;20.286;2023-10-08T00:22:01;101132.59;;;14.83;74.81
40612;BME280;26317;44.894;20.286;2023-10-08T00:27:32;101125.53;;;14.87;74.21
40612;BME280;26317;44.894;20.286;2023-10-08T00:30:16;101120.38;;;14.91;73.86
40612;BME280;26317;44.894;20.286;2023-10-08T00:32:54;101119.81;;;14.94;74.38
40612;BME280;26317;44.894;20.286;2023-10-08T00:35:36;101119.81;;;14.94;74.71
40612;BME280;26317;44.894;20.286;2023-10-08T00:38:30;101117.34;;;14.97;74.15
40612;BME280;26317;44.894;20.286;2023-10-08T00:41:24;101116.00;;;14.95;74.32
40612;BME280;26317;44.894;20.286;2023-10-08T00:44:00;101106.25;;;14.99;74.32
40612;BME280;26317;44.894;20.286;2023-10-08T00:46:43;101107.03;;;14.99;74.41
40612;BME280;26317;44.894;20.286;2023-10-08T00:49:41;101106.31;;;14.94;74.25
40612;BME280;26317;44.894;20.286;2023-10-08T00:53:05;101086.81;;;14.97;74.49
40612;BME280;26317;44.894;20.286;2023-10-08T00:56:03;101085.75;;;14.98;75.20
40612;BME280;26317;44.894;20.286;2023-10-08T00:59:04;101092.81;;;14.94;75.79
40612;BME280;26317;44.894;20.286;2023-10-08T01:01:56;101083.59;;;14.95;76.33
40612;BME280;26317;44.894;20.286;2023-10-08T01:04:45;101085.78;;;14.93;76.19
40612;BME280;26317;44.894;20.286;2023-10-08T01:07:33;101088.44;;;14.98;76.74
40612;BME280;26317;44.894;20.286;2023-10-08T01:10:29;101088.94;;;15.00;76.64
40612;BME280;26317;44.894;20.286;2023-10-08T01:13:07;101073.31;;;14.97;76.63
40612;BME280;26317;44.894;20.286;2023-10-08T01:15:54;101081.88;;;15.04;76.52
40612;BME280;26317;44.894;20.286;2023-10-08T01:18:29;101066.59;;;14.94;76.84
40612;BME280;26317;44.894;20.286;2023-10-08T01:21:28;101088.25;;;15.13;77.18
40612;BME280;26317;44.894;20.286;2023-10-08T01:24:30;101086.66;;;15.12;77.69
40612;BME280;26317;44.894;20.286;2023-10-08T01:27:10;101091.50;;;15.15;77.85
40612;BME280;26317;44.894;20.286;2023-10-08T01:29:55;101088.78;;;15.15;78.16
40612;BME280;26317;44.894;20.286;2023-10-08T01:32:51;101092.00;;;15.17;77.69
40612;BME280;26317;44.894;20.286;2023-10-08T01:35:22;101084.44;;;15.19;77.78
40612;BME280;26317;44.894;20.286;2023-10-08T01:38:10;101088.16;;;15.23;77.73
40612;BME280;26317;44.894;20.286;2023-10-08T01:41:20;101082.19;;;15.26;78.09
40612;BME280;26317;44.894;20.286;2023-10-08T01:44:05;101070.78;;;15.29;77.02
40612;BME280;26317;44.894;20.286;2023-10-08T01:46:54;101065.97;;;15.26;76.85
40612;BME280;26317;44.894;20.286;2023-10-08T01:49:48;101039.91;;;15.11;77.03
40612;BME280;26317;44.894;20.286;2023-10-08T01:52:33;101069.91;;;15.34;77.04
40612;BME280;26317;44.894;20.286;2023-10-08T01:55:26;101068.06;;;15.29;76.15
40612;BME280;26317;44.894;20.286;2023-10-08T01:58:24;101064.28;;;15.30;76.54
40612;BME280;26317;44.894;20.286;2023-10-08T02:01:06;101065.09;;;15.31;75.93
40612;BME280;26317;44.894;20.286;2023-10-08T02:03:45;101063.75;;;15.28;76.22
40612;BME280;26317;44.894;20.286;2023-10-08T02:06:26;101063.25;;;15.26;76.58
40612;BME280;26317;44.894;20.286;2023-10-08T02:09:09;101060.03;;;15.24;76.32
40612;BME280;26317;44.894;20.286;2023-10-08T02:11:49;101069.25;;;15.23;76.32
40612;BME280;26317;44.894;20.286;2023-10-08T02:14:35;101070.56;;;15.26;76.87
40612;BME280;26317;44.894;20.286;2023-10-08T02:17:20;101063.25;;;15.26;76.86
40612;BME280;26317;44.894;20.286;2023-10-08T02:19:58;101059.25;;;15.24;76.18
40612;BME280;26317;44.894;20.286;2023-10-08T02:22:54;101063.31;;;15.21;76.47
40612;BME280;26317;44.894;20.286;2023-10-08T02:25:31;101050.97;;;15.15;76.87
40612;BME280;26317;44.894;20.286;2023-10-08T02:28:09;101049.34;;;15.14;76.59
40612;BME280;26317;44.894;20.286;2023-10-08T02:31:00;101051.75;;;15.15;76.46
40612;BME280;26317;44.894;20.286;2023-10-08T02:33:42;101043.63;;;15.15;76.48
40612;BME280;26317;44.894;20.286;2023-10-08T02:36:34;101044.28;;;15.07;76.14
40612;BME280;26317;44.894;20.286;2023-10-08T02:39:21;101039.69;;;15.08;75.81
40612;BME280;26317;44.894;20.286;2023-10-08T02:42:04;101027.84;;;15.04;75.81
40612;BME280;26317;44.894;20.286;2023-10-08T02:44:43;101032.09;;;15.10;75.62
40612;BME280;26317;44.894;20.286;2023-10-08T02:47:29;101034.81;;;15.10;75.98
40612;BME280;26317;44.894;20.286;2023-10-08T02:50:09;101022.09;;;15.10;75.67
40612;BME280;26317;44.894;20.286;2023-10-08T02:52:53;101029.34;;;15.15;76.21
40612;BME280;26317;44.894;20.286;2023-10-08T02:55:38;101026.56;;;15.20;75.87
40612;BME280;26317;44.894;20.286;2023-10-08T02:58:13;101031.97;;;15.20;75.29
40612;BME280;26317;44.894;20.286;2023-10-08T03:01:04;101036.50;;;15.25;75.27
40612;BME280;26317;44.894;20.286;2023-10-08T03:04:00;101030.25;;;15.29;74.88
40612;BME280;26317;44.894;20.286;2023-10-08T03:06:56;101032.34;;;15.32;74.64
40612;BME280;26317;44.894;20.286;2023-10-08T03:09:36;101028.06;;;15.31;74.45
40612;BME280;26317;44.894;20.286;2023-10-08T03:12:21;101024.03;;;15.29;74.23
40612;BME280;26317;44.894;20.286;2023-10-08T03:15:13;101020.44;;;15.33;74.07
40612;BME280;26317;44.894;20.286;2023-10-08T03:18:01;101018.84;;;15.32;74.05
40612;BME280;26317;44.894;20.286;2023-10-08T03:21:00;101019.44;;;15.29;74.03
40612;BME280;26317;44.894;20.286;2023-10-08T03:23:59;100995.59;;;15.12;74.43
40612;BME280;26317;44.894;20.286;2023-10-08T03:26:44;101019.22;;;15.26;74.95
40612;BME280;26317;44.894;20.286;2023-10-08T03:29:31;101014.38;;;15.23;74.89
40612;BME280;26317;44.894;20.286;2023-10-08T03:32:20;101010.34;;;15.20;74.74
40612;BME280;26317;44.894;20.286;2023-10-08T03:35:00;101014.38;;;15.23;74.37
40612;BME280;26317;44.894;20.286;2023-10-08T03:37:47;101016.22;;;15.27;75.71
40612;BME280;26317;44.894;20.286;2023-10-08T03:40:40;101014.59;;;15.26;74.75
40612;BME280;26317;44.894;20.286;2023-10-08T03:43:20;101013.00;;;15.25;74.56
40612;BME280;26317;44.894;20.286;2023-10-08T03:46:07;101009.69;;;15.28;75.05
40612;BME280;26317;44.894;20.286;2023-10-08T03:48:51;101011.84;;;15.31;74.95
40612;BME280;26317;44.894;20.286;2023-10-08T03:51:41;101011.25;;;15.34;74.60
40612;BME280;26317;44.894;20.286;2023-10-08T03:54:35;101008.78;;;15.38;74.05
40612;BME280;26317;44.894;20.286;2023-10-08T03:57:33;101002.06;;;15.35;73.10
40612;BME280;26317;44.894;20.286;2023-10-08T04:00:59;100991.53;;;15.34;72.91
40612;BME280;26317;44.894;20.286;2023-10-08T04:03:52;100999.41;;;15.30;72.64
40612;BME280;26317;44.894;20.286;2023-10-08T04:06:37;100983.22;;;15.30;72.42
40612;BME280;26317;44.894;20.286;2023-10-08T04:09:32;100986.41;;;15.32;72.22
40612;BME280;26317;44.894;20.286;2023-10-08T04:12:14;100984.22;;;15.34;71.79
40612;BME280;26317;44.894;20.286;2023-10-08T04:14:56;100975.09;;;15.30;71.48
40612;BME280;26317;44.894;20.286;2023-10-08T04:17:43;100978.03;;;15.34;71.21
40612;BME280;26317;44.894;20.286;2023-10-08T04:20:49;100982.34;;;15.35;71.77
40612;BME280;26317;44.894;20.286;2023-10-08T04:23:43;100978.28;;;15.32;72.51
40612;BME280;26317;44.894;20.286;2023-10-08T04:26:29;100999.28;;;15.40;72.50
40612;BME280;26317;44.894;20.286;2023-10-08T04:29:02;100993.31;;;15.43;71.56
40612;BME280;26317;44.894;20.286;2023-10-08T04:31:53;100976.06;;;15.39;70.85
40612;BME280;26317;44.894;20.286;2023-10-08T04:34:42;100990.00;;;15.46;70.68
40612;BME280;26317;44.894;20.286;2023-10-08T04:37:20;100978.97;;;15.43;70.85
40612;BME280;26317;44.894;20.286;2023-10-08T04:40:09;100977.94;;;15.39;70.61
40612;BME280;26317;44.894;20.286;2023-10-08T04:42:50;100976.56;;;15.41;70.59
40612;BME280;26317;44.894;20.286;2023-10-08T04:45:31;100987.09;;;15.43;71.29
40612;BME280;26317;44.894;20.286;2023-10-08T04:48:27;100979.25;;;15.41;70.95
40612;BME280;26317;44.894;20.286;2023-10-08T04:51:03;100988.91;;;15.47;70.55
40612;BME280;26317;44.894;20.286;2023-10-08T04:53:51;100982.69;;;15.47;70.60
40612;BME280;26317;44.894;20.286;2023-10-08T04:56:39;100985.88;;;15.54;70.92
40612;BME280;26317;44.894;20.286;2023-10-08T04:59:28;100981.28;;;15.54;70.99
40612;BME280;26317;44.894;20.286;2023-10-08T05:02:09;100978.56;;;15.54;70.05
40612;BME280;26317;44.894;20.286;2023-10-08T05:05:01;100987.00;;;15.53;70.15
40612;BME280;26317;44.894;20.286;2023-10-08T05:07:51;100989.38;;;15.54;70.40
40612;BME280;26317;44.894;20.286;2023-10-08T05:10:59;100988.06;;;15.52;70.73
40612;BME280;26317;44.894;20.286;2023-10-08T05:14:07;100965.19;;;15.44;71.00
40612;BME280;26317;44.894;20.286;2023-10-08T05:17:09;100969.47;;;15.45;71.35
40612;BME280;26317;44.894;20.286;2023-10-08T05:20:17;100959.84;;;15.39;71.00
40612;BME280;26317;44.894;20.286;2023-10-08T05:23:19;100974.06;;;15.45;71.00
40612;BME280;26317;44.894;20.286;2023-10-08T05:25:57;100971.09;;;15.46;71.44
40612;BME280;26317;44.894;20.286;2023-10-08T05:28:40;100956.03;;;15.40;71.10
40612;BME280;26317;44.894;20.286;2023-10-08T05:31:31;100963.25;;;15.45;70.85
40612;BME280;26317;44.894;20.286;2023-10-08T05:34:39;100972.69;;;15.47;71.40
40612;BME280;26317;44.894;20.286;2023-10-08T05:37:48;100971.84;;;15.52;70.62
40612;BME280;26317;44.894;20.286;2023-10-08T05:40:53;100978.88;;;15.53;70.18
40612;BME280;26317;44.894;20.286;2023-10-08T05:44:05;100983.97;;;15.54;69.53
40612;BME280;26317;44.894;20.286;2023-10-08T05:47:02;100968.34;;;15.51;69.06
40612;BME280;26317;44.894;20.286;2023-10-08T05:49:52;100993.03;;;15.63;68.70
40612;BME280;26317;44.894;20.286;2023-10-08T05:52:49;100995.16;;;15.67;68.44
40612;BME280;26317;44.894;20.286;2023-10-08T05:55:49;101001.38;;;15.67;68.63
40612;BME280;26317;44.894;20.286;2023-10-08T05:58:46;100992.66;;;15.70;68.54
40612;BME280;26317;44.894;20.286;2023-10-08T06:01:32;101005.03;;;15.76;68.63
40612;BME280;26317;44.894;20.286;2023-10-08T06:04:22;101008.75;;;15.80;68.22
40612;BME280;26317;44.894;20.286;2023-10-08T06:07:26;101008.47;;;15.82;68.43
40612;BME280;26317;44.894;20.286;2023-10-08T06:10:42;101007.88;;;15.85;68.62
40612;BME280;26317;44.894;20.286;2023-10-08T06:13:22;101008.34;;;15.87;68.67
40612;BME280;26317;44.894;20.286;2023-10-08T06:16:36;100997.53;;;15.87;68.95
40612;BME280;26317;44.894;20.286;2023-10-08T06:19:42;100988.84;;;15.90;69.06
40612;BME280;26317;44.894;20.286;2023-10-08T06:22:36;100991.78;;;15.93;69.47
40612;BME280;26317;44.894;20.286;2023-10-08T06:25:24;100996.59;;;15.96;68.92
40612;BME280;26317;44.894;20.286;2023-10-08T06:28:01;100991.69;;;15.98;69.34
40612;BME280;26317;44.894;20.286;2023-10-08T06:30:59;100995.19;;;15.99;69.24
40612;BME280;26317;44.894;20.286;2023-10-08T06:33:40;100986.97;;;16.04;69.22
40612;BME280;26317;44.894;20.286;2023-10-08T06:36:29;100993.53;;;16.03;68.95
40612;BME280;26317;44.894;20.286;2023-10-08T06:39:18;100987.19;;;16.07;68.94
40612;BME280;26317;44.894;20.286;2023-10-08T06:42:06;100966.88;;;16.10;69.09
40612;BME280;26317;44.894;20.286;2023-10-08T06:44:44;100961.38;;;16.15;68.58
40612;BME280;26317;44.894;20.286;2023-10-08T06:47:19;100960.19;;;16.21;69.08
40612;BME280;26317;44.894;20.286;2023-10-08T06:49:54;100948.97;;;16.28;69.07
40612;BME280;26317;44.894;20.286;2023-10-08T06:52:31;100955.59;;;16.35;68.78
40612;BME280;26317;44.894;20.286;2023-10-08T06:55:30;100956.59;;;16.39;68.43
40612;BME280;26317;44.894;20.286;2023-10-08T06:58:09;100946.59;;;16.40;68.02
40612;BME280;26317;44.894;20.286;2023-10-08T07:00:51;100959.44;;;16.48;68.12
40612;BME280;26317;44.894;20.286;2023-10-08T07:03:32;100960.44;;;16.52;67.84
40612;BME280;26317;44.894;20.286;2023-10-08T07:06:16;100961.44;;;16.56;66.83
40612;BME280;26317;44.894;20.286;2023-10-08T07:08:57;100954.63;;;16.59;67.22
40612;BME280;26317;44.894;20.286;2023-10-08T07:11:41;100971.41;;;16.61;67.40
40612;BME280;26317;44.894;20.286;2023-10-08T07:14:20;100979.94;;;16.68;67.34
40612;BME280;26317;44.894;20.286;2023-10-08T07:17:00;100974.63;;;16.76;67.22
40612;BME280;26317;44.894;20.286;2023-10-08T07:19:45;100966.41;;;16.81;66.65
40612;BME280;26317;44.894;20.286;2023-10-08T07:22:40;100977.00;;;16.91;66.74
40612;BME280;26317;44.894;20.286;2023-10-08T07:25:24;100972.31;;;16.97;65.85
40612;BME280;26317;44.894;20.286;2023-10-08T07:28:33;100974.00;;;17.07;65.93
40612;BME280;26317;44.894;20.286;2023-10-08T07:31:31;100977.28;;;17.17;65.32
40612;BME280;26317;44.894;20.286;2023-10-08T07:34:11;100980.38;;;17.24;65.42
40612;BME280;26317;44.894;20.286;2023-10-08T07:37:00;100974.47;;;17.36;64.42
40612;BME280;26317;44.894;20.286;2023-10-08T07:39:36;100974.53;;;17.44;64.46
40612;BME280;26317;44.894;20.286;2023-10-08T07:42:26;100960.13;;;17.58;63.08
40612;BME280;26317;44.894;20.286;2023-10-08T07:45:13;100952.88;;;17.67;63.31
40612;BME280;26317;44.894;20.286;2023-10-08T07:48:00;100951.41;;;17.83;63.86
40612;BME280;26317;44.894;20.286;2023-10-08T07:50:44;100957.28;;;17.99;63.83
40612;BME280;26317;44.894;20.286;2023-10-08T07:53:23;100953.00;;;18.06;60.63
40612;BME280;26317;44.894;20.286;2023-10-08T07:56:19;100957.06;;;18.17;59.71
40612;BME280;26317;44.894;20.286;2023-10-08T07:58:54;100953.09;;;18.23;59.59
40612;BME280;26317;44.894;20.286;2023-10-08T08:01:43;100954.56;;;18.29;58.80
40612;BME280;26317;44.894;20.286;2023-10-08T08:04:24;100958.00;;;18.44;57.95
40612;BME280;26317;44.894;20.286;2023-10-08T08:07:02;100947.66;;;18.54;58.58
40612;BME280;26317;44.894;20.286;2023-10-08T08:09:46;100926.84;;;18.50;57.08
40612;BME280;26317;44.894;20.286;2023-10-08T08:12:32;100946.94;;;18.71;56.74
40612;BME280;26317;44.894;20.286;2023-10-08T08:15:13;100937.69;;;18.80;55.80
40612;BME280;26317;44.894;20.286;2023-10-08T08:18:04;100920.44;;;18.85;54.33
40612;BME280;26317;44.894;20.286;2023-10-08T08:21:03;100926.38;;;19.04;53.20
40612;BME280;26317;44.894;20.286;2023-10-08T08:23:46;100926.56;;;19.16;53.09
40612;BME280;26317;44.894;20.286;2023-10-08T08:26:40;100919.38;;;19.20;52.09
40612;BME280;26317;44.894;20.286;2023-10-08T08:29:42;100929.94;;;19.39;51.85
40612;BME280;26317;44.894;20.286;2023-10-08T08:32:28;100911.41;;;19.50;51.24
40612;BME280;26317;44.894;20.286;2023-10-08T08:35:24;100922.13;;;19.63;51.48
40612;BME280;26317;44.894;20.286;2023-10-08T08:38:16;100906.75;;;19.76;50.23
40612;BME280;26317;44.894;20.286;2023-10-08T08:41:09;100909.94;;;19.87;49.54
40612;BME280;26317;44.894;20.286;2023-10-08T08:44:02;100916.94;;;20.05;50.61
40612;BME280;26317;44.894;20.286;2023-10-08T08:47:01;100917.84;;;20.17;48.70
40612;BME280;26317;44.894;20.286;2023-10-08T08:50:09;100918.16;;;20.33;47.52
40612;BME280;26317;44.894;20.286;2023-10-08T08:53:03;100918.38;;;20.57;48.69
40612;BME280;26317;44.894;20.286;2023-10-08T08:55:54;100920.69;;;20.76;46.28
40612;BME280;26317;44.894;20.286;2023-10-08T08:58:58;100918.34;;;20.95;45.65
40612;BME280;26317;44.894;20.286;2023-10-08T09:01:50;100910.31;;;21.20;44.95
40612;BME280;26317;44.894;20.286;2023-10-08T09:04:33;100916.72;;;21.44;44.73
40612;BME280;26317;44.894;20.286;2023-10-08T09:07:21;100911.19;;;21.53;45.49
40612;BME280;26317;44.894;20.286;2023-10-08T09:10:17;100914.88;;;21.69;45.65
40612;BME280;26317;44.894;20.286;2023-10-08T09:13:28;100916.03;;;21.80;44.11
40612;BME280;26317;44.894;20.286;2023-10-08T09:16:15;100908.38;;;21.94;43.82
40612;BME280;26317;44.894;20.286;2023-10-08T09:19:04;100918.75;;;22.01;42.79
40612;BME280;26317;44.894;20.286;2023-10-08T09:22:06;100913.66;;;22.12;41.27
40612;BME280;26317;44.894;20.286;2023-10-08T09:24:52;100914.91;;;22.14;42.39
40612;BME280;26317;44.894;20.286;2023-10-08T09:28:05;100924.50;;;22.20;42.90
40612;BME280;26317;44.894;20.286;2023-10-08T09:30:50;100932.13;;;22.27;42.09
40612;BME280;26317;44.894;20.286;2023-10-08T09:33:41;100918.47;;;22.27;42.49
40612;BME280;26317;44.894;20.286;2023-10-08T09:36:23;100917.56;;;22.23;42.47
40612;BME280;26317;44.894;20.286;2023-10-08T09:39:10;100915.97;;;22.34;43.74
40612;BME280;26317;44.894;20.286;2023-10-08T09:42:02;100907.91;;;22.37;43.50
40612;BME280;26317;44.894;20.286;2023-10-08T09:44:55;100897.88;;;22.41;42.86
40612;BME280;26317;44.894;20.286;2023-10-08T09:47:53;100894.34;;;22.53;42.39
40612;BME280;26317;44.894;20.286;2023-10-08T09:50:42;100894.78;;;22.55;41.43
40612;BME280;26317;44.894;20.286;2023-10-08T09:53:58;100898.44;;;22.59;41.22
40612;BME280;26317;44.894;20.286;2023-10-08T09:57:41;100898.66;;;22.66;41.48
40612;BME280;26317;44.894;20.286;2023-10-08T10:00:40;100886.81;;;22.62;42.40
40612;BME280;26317;44.894;20.286;2023-10-08T10:03:43;100912.38;;;22.78;41.06
40612;BME280;26317;44.894;20.286;2023-10-08T10:06:39;100907.09;;;22.85;40.39
40612;BME280;26317;44.894;20.286;2023-10-08T10:09:30;100901.75;;;22.89;41.06
40612;BME280;26317;44.894;20.286;2023-10-08T10:12:26;100912.56;;;22.98;41.80
40612;BME280;26317;44.894;20.286;2023-10-08T10:15:03;100908.66;;;23.11;41.17
40612;BME280;26317;44.894;20.286;2023-10-08T10:18:16;100902.41;;;23.38;40.96
40612;BME280;26317;44.894;20.286;2023-10-08T10:21:30;100899.56;;;23.74;40.19
40612;BME280;26317;44.894;20.286;2023-10-08T10:24:35;100894.66;;;23.96;39.78
40612;BME280;26317;44.894;20.286;2023-10-08T10:27:25;100880.88;;;24.08;40.07
40612;BME280;26317;44.894;20.286;2023-10-08T10:30:16;100889.03;;;24.20;39.55
40612;BME280;26317;44.894;20.286;2023-10-08T10:33:01;100889.28;;;24.31;39.03
40612;BME280;26317;44.894;20.286;2023-10-08T10:36:06;100889.13;;;24.23;39.41
40612;BME280;26317;44.894;20.286;2023-10-08T10:38:52;100893.97;;;24.30;39.07
40612;BME280;26317;44.894;20.286;2023-10-08T10:41:27;100893.28;;;24.33;38.89
40612;BME280;26317;44.894;20.286;2023-10-08T10:47:06;100877.91;;;24.28;39.14
40612;BME280;26317;44.894;20.286;2023-10-08T10:50:10;100876.84;;;24.33;39.18
40612;BME280;26317;44.894;20.286;2023-10-08T10:53:20;100855.78;;;24.37;39.76
40612;BME280;26317;44.894;20.286;2023-10-08T10:56:01;100862.09;;;24.57;38.58
40612;BME280;26317;44.894;20.286;2023-10-08T10:58:51;100849.00;;;24.66;38.92
40612;BME280;26317;44.894;20.286;2023-10-08T11:01:32;100841.56;;;24.66;38.59
40612;BME280;26317;44.894;20.286;2023-10-08T11:04:18;100830.59;;;24.66;38.45
40612;BME280;26317;44.894;20.286;2023-10-08T11:07:07;100842.44;;;24.70;39.14
40612;BME280;26317;44.894;20.286;2023-10-08T11:09:58;100840.69;;;24.62;40.24
40612;BME280;26317;44.894;20.286;2023-10-08T11:12:53;100836.97;;;24.70;39.79
40612;BME280;26317;44.894;20.286;2023-10-08T11:15:35;100846.47;;;24.77;40.48
40612;BME280;26317;44.894;20.286;2023-10-08T11:18:21;100868.16;;;24.82;41.04
40612;BME280;26317;44.894;20.286;2023-10-08T11:21:06;100864.78;;;24.88;40.92
40612;BME280;26317;44.894;20.286;2023-10-08T11:23:54;100841.88;;;24.81;40.61
40612;BME280;26317;44.894;20.286;2023-10-08T11:26:40;100843.47;;;24.82;40.95
40612;BME280;26317;44.894;20.286;2023-10-08T11:29:34;100839.31;;;25.07;40.02
40612;BME280;26317;44.894;20.286;2023-10-08T11:32:20;100843.66;;;25.27;39.45
40612;BME280;26317;44.894;20.286;2023-10-08T11:35:03;100844.13;;;25.52;39.16
40612;BME280;26317;44.894;20.286;2023-10-08T11:38:01;100844.69;;;25.80;38.44
40612;BME280;26317;44.894;20.286;2023-10-08T11:41:10;100854.41;;;25.97;37.63
40612;BME280;26317;44.894;20.286;2023-10-08T11:44:12;100835.66;;;26.02;38.44
40612;BME280;26317;44.894;20.286;2023-10-08T11:46:55;100842.38;;;26.28;37.08
40612;BME280;26317;44.894;20.286;2023-10-08T11:49:49;100865.28;;;26.35;37.58
40612;BME280;26317;44.894;20.286;2023-10-08T11:52:41;100846.78;;;26.32;37.33
40612;BME280;26317;44.894;20.286;2023-10-08T11:55:24;100832.59;;;26.30;37.01
40612;BME280;26317;44.894;20.286;2023-10-08T11:58:00;100844.63;;;26.22;37.42
40612;BME280;26317;44.894;20.286;2023-10-08T12:00:52;100840.59;;;26.16;37.70
40612;BME280;26317;44.894;20.286;2023-10-08T12:03:35;100851.03;;;26.07;38.35
40612;BME280;26317;44.894;20.286;2023-10-08T12:06:23;100852.94;;;26.03;36.92
40612;BME280;26317;44.894;20.286;2023-10-08T12:11:47;100844.25;;;26.01;36.47
40612;BME280;26317;44.894;20.286;2023-10-08T12:14:39;100830.03;;;25.95;36.50
40612;BME280;26317;44.894;20.286;2023-10-08T12:17:27;100850.94;;;26.00;35.90
40612;BME280;26317;44.894;20.286;2023-10-08T12:20:21;100834.50;;;26.03;36.12
40612;BME280;26317;44.894;20.286;2023-10-08T12:22:58;100830.94;;;26.03;35.99
40612;BME280;26317;44.894;20.286;2023-10-08T12:26:00;100847.59;;;26.14;36.10
40612;BME280;26317;44.894;20.286;2023-10-08T12:28:45;100845.34;;;26.19;36.10
40612;BME280;26317;44.894;20.286;2023-10-08T12:31:33;100855.56;;;26.19;35.93
40612;BME280;26317;44.894;20.286;2023-10-08T12:34:26;100853.28;;;26.21;36.09
40612;BME280;26317;44.894;20.286;2023-10-08T12:37:02;100858.03;;;26.24;35.99
40612;BME280;26317;44.894;20.286;2023-10-08T12:39:47;100864.91;;;26.14;36.93
40612;BME280;26317;44.894;20.286;2023-10-08T12:42:31;100866.25;;;26.01;37.05
40612;BME280;26317;44.894;20.286;2023-10-08T12:45:24;100857.66;;;25.80;37.46
40612;BME280;26317;44.894;20.286;2023-10-08T12:48:05;100888.66;;;25.80;37.86
40612;BME280;26317;44.894;20.286;2023-10-08T12:50:54;100898.44;;;25.78;37.93
40612;BME280;26317;44.894;20.286;2023-10-08T12:53:41;100889.16;;;25.63;37.70
40612;BME280;26317;44.894;20.286;2023-10-08T12:56:37;100889.78;;;25.56;38.24
40612;BME280;26317;44.894;20.286;2023-10-08T12:59:31;100893.50;;;25.48;38.55
40612;BME280;26317;44.894;20.286;2023-10-08T13:02:10;100899.75;;;25.45;38.95
40612;BME280;26317;44.894;20.286;2023-10-08T13:04:50;100879.06;;;25.32;38.19
40612;BME280;26317;44.894;20.286;2023-10-08T13:07:40;100915.91;;;25.31;38.72
40612;BME280;26317;44.894;20.286;2023-10-08T13:10:31;100911.03;;;25.21;39.44
40612;BME280;26317;44.894;20.286;2023-10-08T13:13:35;100909.41;;;25.20;39.57
40612;BME280;26317;44.894;20.286;2023-10-08T13:16:29;100907.22;;;25.10;40.16
40612;BME280;26317;44.894;20.286;2023-10-08T13:22:16;100909.81;;;25.03;39.53
40612;BME280;26317;44.894;20.286;2023-10-08T13:25:06;100901.06;;;24.97;39.54
40612;BME280;26317;44.894;20.286;2023-10-08T13:27:46;100922.88;;;24.90;40.01
40612;BME280;26317;44.894;20.286;2023-10-08T13:30:24;100904.75;;;24.86;40.23
40612;BME280;26317;44.894;20.286;2023-10-08T13:33:07;100915.44;;;24.75;40.61
40612;BME280;26317;44.894;20.286;2023-10-08T13:35:49;100913.06;;;24.73;40.94
40612;BME280;26317;44.894;20.286;2023-10-08T13:38:53;100917.56;;;24.82;40.80
40612;BME280;26317;44.894;20.286;2023-10-08T13:41:47;100913.13;;;24.77;40.74
40612;BME280;26317;44.894;20.286;2023-10-08T13:44:28;100922.16;;;24.78;40.98
40612;BME280;26317;44.894;20.286;2023-10-08T13:47:06;100923.16;;;24.69;41.78
40612;BME280;26317;44.894;20.286;2023-10-08T13:49:52;100928.78;;;24.77;41.31
40612;BME280;26317;44.894;20.286;2023-10-08T13:52:38;100921.56;;;24.68;41.17
40612;BME280;26317;44.894;20.286;2023-10-08T13:55:32;100931.47;;;24.73;41.67
40612;BME280;26317;44.894;20.286;2023-10-08T13:58:13;100936.53;;;24.71;41.92
40612;BME280;26317;44.894;20.286;2023-10-08T14:00:55;100934.94;;;24.70;41.79
40612;BME280;26317;44.894;20.286;2023-10-08T14:03:36;100937.59;;;24.66;42.09
40612;BME280;26317;44.894;20.286;2023-10-08T14:06:26;100944.13;;;24.62;41.57
40612;BME280;26317;44.894;20.286;2023-10-08T14:09:08;100937.84;;;24.61;42.01
40612;BME280;26317;44.894;20.286;2023-10-08T14:11:53;100948.09;;;24.64;41.92
40612;BME280;26317;44.894;20.286;2023-10-08T14:14:42;100939.16;;;24.67;42.26
40612;BME280;26317;44.894;20.286;2023-10-08T14:17:20;100940.25;;;24.63;42.46
40612;BME280;26317;44.894;20.286;2023-10-08T14:20:14;100941.41;;;24.62;42.43
40612;BME280;26317;44.894;20.286;2023-10-08T14:23:04;100940.13;;;24.59;42.30
40612;BME280;26317;44.894;20.286;2023-10-08T14:25:41;100957.66;;;24.55;42.45
40612;BME280;26317;44.894;20.286;2023-10-08T14:28:28;100948.22;;;24.52;42.63
40612;BME280;26317;44.894;20.286;2023-10-08T14:31:39;100951.03;;;24.40;42.23
40612;BME280;26317;44.894;20.286;2023-10-08T14:34:31;100958.22;;;24.29;42.67
40612;BME280;26317;44.894;20.286;2023-10-08T14:37:23;100953.06;;;24.27;43.00
40612;BME280;26317;44.894;20.286;2023-10-08T14:40:16;100952.66;;;24.13;43.53
40612;BME280;26317;44.894;20.286;2023-10-08T14:43:23;100958.50;;;24.12;43.58
40612;BME280;26317;44.894;20.286;2023-10-08T14:46:18;100957.69;;;24.11;43.77
40612;BME280;26317;44.894;20.286;2023-10-08T14:49:08;100962.00;;;23.97;44.20